createdAt,value
2018-09-13T00:00:23.755Z,25.82
2018-09-13T00:02:55.613Z,25.71
2018-09-13T00:05:25.141Z,25.76
2018-09-13T00:07:54.471Z,25.72
2018-09-13T00:10:24.859Z,25.78
2018-09-13T00:12:54.284Z,25.79
2018-09-13T00:15:24.822Z,25.80
2018-09-13T00:17:54.193Z,25.83
2018-09-13T00:20:24.447Z,25.80
2018-09-13T00:22:54.719Z,25.74
2018-09-13T00:25:25.375Z,25.75
2018-09-13T00:27:57.212Z,25.78
2018-09-13T00:30:27.126Z,25.87
2018-09-13T00:32:57.379Z,25.82
2018-09-13T00:35:29.319Z,25.75
2018-09-13T00:38:00.797Z,25.95
2018-09-13T00:40:31.052Z,25.84
2018-09-13T00:43:01.253Z,25.67
2018-09-13T00:45:31.698Z,25.64
2018-09-13T00:48:01.969Z,25.65
2018-09-13T00:50:31.373Z,25.73
2018-09-13T00:53:02.513Z,25.80
2018-09-13T00:55:32.840Z,25.72
2018-09-13T00:58:03.120Z,25.84
2018-09-13T01:00:33.337Z,25.80
2018-09-13T01:03:03.619Z,25.80
2018-09-13T01:05:33.150Z,25.84
2018-09-13T01:08:06.522Z,25.78
2018-09-13T01:10:35.908Z,25.68
2018-09-13T01:13:05.259Z,25.36
2018-09-13T01:19:03.258Z,25.96
2018-09-13T01:21:33.180Z,25.96
2018-09-13T01:24:02.343Z,25.99
2018-09-13T01:26:40.091Z,25.95
2018-09-13T01:29:10.020Z,25.89
2018-09-13T01:31:44.552Z,25.83
2018-09-13T01:34:14.694Z,25.85
2018-09-13T01:36:44.073Z,25.85
2018-09-13T01:39:15.507Z,25.90
2018-09-13T01:41:48.089Z,25.95
2018-09-13T01:44:17.839Z,25.89
2018-09-13T01:46:48.050Z,25.82
2018-09-13T01:49:19.620Z,25.82
2018-09-13T01:51:48.859Z,25.80
2018-09-13T01:54:18.106Z,25.81
2018-09-13T01:56:49.035Z,25.76
2018-09-13T01:59:18.425Z,25.80
2018-09-13T02:01:47.629Z,25.68
2018-09-13T02:04:17.236Z,25.68
2018-09-13T02:06:47.818Z,25.62
2018-09-13T02:09:17.955Z,25.58
2018-09-13T02:11:48.354Z,25.45
2018-09-13T02:14:17.716Z,25.37
2018-09-13T02:16:46.942Z,25.41
2018-09-13T02:19:16.541Z,25.46
2018-09-13T02:21:45.770Z,25.42
2018-09-13T02:24:15.907Z,25.49
2018-09-13T02:26:46.529Z,24.90
2018-09-13T02:29:16.689Z,25.45
2018-09-13T02:31:46.822Z,25.18
2018-09-13T02:34:16.977Z,24.65
2018-09-13T02:36:46.242Z,25.26
2018-09-13T02:39:16.354Z,25.23
2018-09-13T02:41:47.967Z,25.12
2018-09-13T02:44:17.361Z,25.11
2018-09-13T02:46:47.557Z,25.13
2018-09-13T02:49:16.770Z,25.08
2018-09-13T02:51:46.203Z,25.07
2018-09-13T02:54:15.466Z,25.12
2018-09-13T02:56:45.584Z,25.09
2018-09-13T02:59:15.783Z,25.02
2018-09-13T03:01:46.069Z,24.99
2018-09-13T03:04:16.207Z,24.87
2018-09-13T03:06:46.348Z,24.86
2018-09-13T03:09:16.593Z,24.89
2018-09-13T03:11:45.916Z,24.88
2018-09-13T03:14:15.111Z,24.94
2018-09-13T03:16:45.523Z,25.06
2018-09-13T03:19:14.756Z,24.97
2018-09-13T03:21:44.975Z,24.96
2018-09-13T03:24:15.065Z,24.90
2018-09-13T03:26:45.448Z,24.97
2018-09-13T03:29:15.680Z,25.02
2018-09-13T03:31:45.242Z,25.05
2018-09-13T03:34:15.478Z,24.98
2018-09-13T03:36:45.998Z,24.95
2018-09-13T03:39:17.281Z,24.95
2018-09-13T03:41:47.389Z,25.02
2018-09-13T03:44:16.595Z,25.09
2018-09-13T03:46:47.013Z,25.21
2018-09-13T03:49:17.720Z,25.08
2018-09-13T03:51:48.919Z,24.88
2018-09-13T03:54:19.344Z,25.22
2018-09-13T03:59:41.720Z,25.18
2018-09-13T04:02:11.839Z,25.19
2018-09-13T04:04:41.945Z,25.26
2018-09-13T04:07:13.888Z,25.25
2018-09-13T04:09:43.993Z,25.16
2018-09-13T04:12:15.074Z,25.32
2018-09-13T04:14:45.693Z,25.41
2018-09-13T04:17:15.819Z,25.27
2018-09-13T04:19:46.917Z,25.31
2018-09-13T04:22:18.366Z,25.25
2018-09-13T04:24:49.535Z,25.24
2018-09-13T04:27:19.822Z,25.21
2018-09-13T04:29:51.283Z,25.27
2018-09-13T04:32:22.416Z,25.32
2018-09-13T04:34:52.609Z,25.38
2018-09-13T04:37:23.309Z,25.34
2018-09-13T04:39:53.393Z,25.25
2018-09-13T04:42:23.486Z,25.14
2018-09-13T04:44:53.594Z,25.23
2018-09-13T04:47:24.880Z,25.24
2018-09-13T04:49:55.010Z,25.27
2018-09-13T04:52:25.948Z,25.12
2018-09-13T04:54:57.220Z,25.11
2018-09-13T04:57:27.798Z,25.22
2018-09-13T04:59:59.258Z,25.31
2018-09-13T05:02:30.309Z,25.38
2018-09-13T05:05:00.922Z,25.31
2018-09-13T05:07:31.678Z,25.34
2018-09-13T05:10:02.359Z,25.30
2018-09-13T05:12:32.027Z,25.23
2018-09-13T05:15:03.478Z,25.31
2018-09-13T05:17:33.676Z,25.27
2018-09-13T05:20:03.778Z,25.11
2018-09-13T05:22:35.620Z,25.03
2018-09-13T05:25:05.986Z,25.20
2018-09-13T05:27:37.093Z,25.08
2018-09-13T05:30:07.840Z,24.99
2018-09-13T05:32:38.999Z,24.96
2018-09-13T05:35:09.538Z,25.05
2018-09-13T05:37:41.640Z,24.93
2018-09-13T05:40:12.846Z,25.07
2018-09-13T05:42:43.641Z,25.07
2018-09-13T05:45:17.383Z,25.14
2018-09-13T05:47:47.560Z,25.09
2018-09-13T05:50:17.684Z,25.07
2018-09-13T05:52:47.778Z,25.11
2018-09-13T05:55:21.327Z,25.17
2018-09-13T05:57:53.237Z,25.17
2018-09-13T06:00:24.781Z,25.19
2018-09-13T06:02:55.918Z,25.25
2018-09-13T06:05:26.038Z,25.22
2018-09-13T06:07:56.201Z,25.19
2018-09-13T06:10:27.021Z,25.28
2018-09-13T06:12:59.127Z,25.28
2018-09-13T06:15:30.249Z,25.24
2018-09-13T06:18:01.785Z,25.24
2018-09-13T06:20:33.829Z,25.31
2018-09-13T06:23:04.856Z,25.30
2018-09-13T06:25:36.679Z,25.43
2018-09-13T06:28:07.992Z,25.62
2018-09-13T06:30:37.316Z,25.72
2018-09-13T06:33:07.553Z,25.74
2018-09-13T06:35:36.804Z,25.85
2018-09-13T06:38:06.945Z,25.96
2018-09-13T06:40:37.102Z,26.18
2018-09-13T06:43:08.273Z,26.34
2018-09-13T06:45:39.029Z,26.19
2018-09-13T06:48:10.166Z,26.50
2018-09-13T06:50:40.275Z,26.76
2018-09-13T06:53:10.763Z,26.75
2018-09-13T06:55:43.075Z,26.94
2018-09-13T06:58:14.215Z,27.13
2018-09-13T07:00:44.598Z,27.15
2018-09-13T07:03:16.741Z,27.53
2018-09-13T07:05:46.617Z,27.55
2018-09-13T07:08:16.067Z,27.37
2018-09-13T07:10:45.489Z,27.23
2018-09-13T07:13:15.374Z,27.30
2018-09-13T07:18:10.454Z,27.66
2018-09-13T07:23:15.531Z,27.74
2018-09-13T07:25:46.204Z,27.70
2018-09-13T07:28:15.641Z,27.65
2018-09-13T07:30:44.967Z,27.65
2018-09-13T07:33:17.227Z,27.85
2018-09-13T07:35:47.419Z,28.00
2018-09-13T07:38:17.983Z,28.29
2018-09-13T07:40:47.317Z,28.42
2018-09-13T07:43:17.489Z,28.71
2018-09-13T07:45:50.438Z,28.64
2018-09-13T07:48:22.331Z,28.70
2018-09-13T07:50:53.239Z,29.07
2018-09-13T07:53:24.289Z,29.31
2018-09-13T07:55:54.431Z,29.42
2018-09-13T07:58:24.887Z,29.55
2018-09-13T08:00:56.094Z,29.62
2018-09-13T08:03:29.576Z,29.82
2018-09-13T08:05:59.197Z,29.69
2018-09-13T08:08:29.332Z,29.98
2018-09-13T08:11:01.946Z,30.12
2018-09-13T08:13:32.550Z,30.16
2018-09-13T08:16:03.779Z,30.30
2018-09-13T08:18:35.773Z,30.28
2018-09-13T08:21:06.270Z,30.31
2018-09-13T08:23:35.996Z,30.18
2018-09-13T08:26:06.627Z,30.05
2018-09-13T08:28:37.735Z,30.12
2018-09-13T08:31:07.421Z,30.28
2018-09-13T08:33:36.857Z,30.32
2018-09-13T08:36:08.145Z,30.41
2018-09-13T08:38:38.382Z,30.52
2018-09-13T08:41:10.108Z,30.27
2018-09-13T08:43:42.473Z,29.82
2018-09-13T08:46:13.051Z,29.92
2018-09-13T08:48:43.207Z,29.67
2018-09-13T08:51:16.128Z,29.80
2018-09-13T08:53:48.019Z,29.58
2018-09-13T08:56:17.385Z,29.73
2018-09-13T08:58:48.096Z,29.63
2018-09-13T09:01:18.164Z,29.48
2018-09-13T09:03:47.471Z,29.36
2018-09-13T09:06:17.622Z,29.16
2018-09-13T09:08:47.643Z,29.02
2018-09-13T09:11:16.993Z,29.16
2018-09-13T09:13:47.694Z,29.42
2018-09-13T09:16:17.497Z,29.72
2018-09-13T09:19:00.123Z,29.88
2018-09-13T09:21:30.452Z,29.88
2018-09-13T09:24:05.392Z,29.71
2018-09-13T09:26:36.133Z,29.74
2018-09-13T09:29:08.495Z,29.42
2018-09-13T09:31:40.735Z,29.42
2018-09-13T09:34:10.681Z,29.40
2018-09-13T09:36:42.107Z,29.05
2018-09-13T09:39:16.370Z,29.27
2018-09-13T09:41:49.005Z,29.25
2018-09-13T09:44:25.415Z,29.27
2018-09-13T09:46:57.158Z,29.16
2018-09-13T09:49:28.870Z,29.32
2018-09-13T09:52:00.696Z,29.53
2018-09-13T09:54:31.842Z,29.69
2018-09-13T09:57:02.263Z,29.74
2018-09-13T09:59:33.172Z,30.00
2018-09-13T10:02:09.209Z,29.90
2018-09-13T10:07:30.633Z,29.80
2018-09-13T10:10:01.245Z,30.10
2018-09-13T10:12:34.195Z,29.93
2018-09-13T10:15:09.551Z,30.03
2018-09-13T10:17:46.803Z,29.70
2018-09-13T10:20:22.342Z,29.46
2018-09-13T10:22:58.614Z,29.46
2018-09-13T10:27:36.183Z,29.55
2018-09-13T10:30:12.480Z,29.46
2018-09-13T10:32:48.322Z,29.63
2018-09-13T10:35:26.377Z,29.69
2018-09-13T10:38:02.673Z,29.75
2018-09-13T10:40:37.721Z,29.72
2018-09-13T10:43:13.367Z,29.66
2018-09-13T10:45:49.199Z,29.55
2018-09-13T10:48:23.798Z,29.55
2018-09-13T10:50:59.479Z,29.38
2018-09-13T10:53:38.617Z,29.17
2018-09-13T10:56:10.794Z,28.97
2018-09-13T10:58:44.133Z,29.35
2018-09-13T11:01:17.159Z,29.47
2018-09-13T11:03:47.271Z,29.42
2018-09-13T11:06:17.103Z,29.51
2018-09-13T11:08:46.974Z,29.81
2018-09-13T11:11:17.373Z,30.10
2018-09-13T11:13:57.704Z,30.36
2018-09-13T11:16:28.066Z,30.25
2018-09-13T11:19:01.033Z,30.18
2018-09-13T11:21:31.972Z,30.17
2018-09-13T11:24:04.632Z,30.21
2018-09-13T11:26:36.725Z,30.64
2018-09-13T11:29:08.161Z,30.42
2018-09-13T11:31:40.289Z,30.43
2018-09-13T11:34:12.865Z,30.46
2018-09-13T11:36:43.856Z,30.53
2018-09-13T11:39:17.611Z,30.84
2018-09-13T11:41:52.574Z,30.66
2018-09-13T11:44:22.883Z,30.66
2018-09-13T11:46:55.067Z,30.71
2018-09-13T11:49:25.514Z,31.01
2018-09-13T11:51:58.100Z,31.09
2018-09-13T11:54:29.160Z,30.81
2018-09-13T11:56:59.331Z,31.14
2018-09-13T11:59:31.466Z,31.09
2018-09-13T12:02:01.796Z,30.75
2018-09-13T12:04:33.356Z,30.47
2018-09-13T12:07:05.266Z,30.56
2018-09-13T12:09:35.904Z,30.68
2018-09-13T12:12:06.809Z,30.69
2018-09-13T12:14:40.370Z,30.53
2018-09-13T12:17:13.107Z,30.48
2018-09-13T12:19:45.944Z,30.50
2018-09-13T12:22:16.229Z,30.77
2018-09-13T12:24:46.766Z,30.70
2018-09-13T12:27:18.241Z,30.66
2018-09-13T12:29:49.152Z,30.80
2018-09-13T12:32:22.495Z,31.08
2018-09-13T12:34:56.146Z,31.21
2018-09-13T12:37:27.017Z,31.11
2018-09-13T12:39:58.804Z,31.11
2018-09-13T12:42:29.737Z,31.08
2018-09-13T12:45:02.279Z,31.13
2018-09-13T12:47:33.938Z,31.17
2018-09-13T12:50:05.811Z,31.23
2018-09-13T12:52:36.859Z,31.25
2018-09-13T12:55:12.349Z,31.32
2018-09-13T12:57:43.398Z,31.25
2018-09-13T13:00:27.267Z,31.49
2018-09-13T13:02:59.480Z,31.41
2018-09-13T13:05:31.398Z,31.49
2018-09-13T13:08:03.685Z,31.50
2018-09-13T13:10:34.667Z,31.28
2018-09-13T13:13:09.164Z,31.10
2018-09-13T13:15:42.337Z,31.45
2018-09-13T13:18:14.507Z,31.21
2018-09-13T13:20:45.446Z,31.08
2018-09-13T13:23:16.855Z,30.81
2018-09-13T13:25:53.252Z,30.98
2018-09-13T13:28:26.757Z,31.13
2018-09-13T13:30:58.433Z,31.21
2018-09-13T13:33:29.973Z,31.55
2018-09-13T13:36:01.947Z,31.45
2018-09-13T13:38:42.521Z,31.44
2018-09-13T13:41:14.296Z,31.45
2018-09-13T13:43:53.090Z,31.30
2018-09-13T13:46:31.259Z,31.39
2018-09-13T13:49:04.178Z,31.90
2018-09-13T13:51:39.384Z,31.66
2018-09-13T13:54:10.787Z,31.59
2018-09-13T13:56:45.964Z,31.42
2018-09-13T13:59:17.582Z,31.42
2018-09-13T14:01:48.286Z,31.54
2018-09-13T14:04:19.410Z,31.52
2018-09-13T14:06:51.197Z,31.73
2018-09-13T14:09:22.603Z,31.86
2018-09-13T14:11:54.691Z,31.89
2018-09-13T14:14:25.884Z,31.88
2018-09-13T14:16:57.422Z,31.73
2018-09-13T14:19:29.360Z,31.61
2018-09-13T14:22:02.524Z,31.58
2018-09-13T14:24:37.398Z,31.76
2018-09-13T14:27:10.321Z,32.02
2018-09-13T14:29:42.243Z,32.07
2018-09-13T14:32:13.602Z,32.21
2018-09-13T14:34:45.458Z,32.14
2018-09-13T14:37:17.214Z,32.19
2018-09-13T14:39:49.516Z,32.31
2018-09-13T14:42:20.711Z,32.32
2018-09-13T14:44:53.180Z,32.63
2018-09-13T14:47:25.942Z,32.68
2018-09-13T14:49:56.897Z,32.61
2018-09-13T14:52:27.461Z,32.75
2018-09-13T14:54:59.184Z,32.93
2018-09-13T14:57:30.390Z,32.78
2018-09-13T15:00:02.177Z,32.87
2018-09-13T15:02:33.861Z,32.99
2018-09-13T15:05:04.415Z,32.88
2018-09-13T15:07:35.739Z,32.64
2018-09-13T15:10:06.958Z,32.47
2018-09-13T15:12:37.888Z,32.30
2018-09-13T15:15:08.649Z,32.25
2018-09-13T15:17:41.123Z,32.09
2018-09-13T15:20:13.015Z,31.89
2018-09-13T15:22:44.774Z,31.82
2018-09-13T15:25:15.892Z,31.69
2018-09-13T15:27:49.391Z,31.71
2018-09-13T15:30:22.543Z,31.68
2018-09-13T15:32:53.632Z,31.75
2018-09-13T15:35:25.820Z,31.70
2018-09-13T15:37:56.730Z,31.75
2018-09-13T15:40:28.000Z,31.79
2018-09-13T15:42:58.907Z,31.90
2018-09-13T15:45:31.318Z,31.72
2018-09-13T15:48:04.390Z,31.59
2018-09-13T15:50:36.811Z,31.33
2018-09-13T15:53:07.866Z,31.26
2018-09-13T15:55:38.952Z,31.07
2018-09-13T15:58:10.593Z,30.91
2018-09-13T16:00:42.801Z,30.99
2018-09-13T16:03:14.712Z,31.13
2018-09-13T16:05:49.078Z,31.10
2018-09-13T16:08:20.873Z,31.08
2018-09-13T16:10:52.502Z,30.98
2018-09-13T16:13:24.429Z,30.92
2018-09-13T16:15:55.349Z,30.85
2018-09-13T16:18:25.568Z,30.80
2018-09-13T16:20:57.356Z,30.79
2018-09-13T16:23:29.011Z,30.84
2018-09-13T16:25:59.990Z,30.75
2018-09-13T16:28:31.127Z,30.65
2018-09-13T16:31:02.091Z,30.59
2018-09-13T16:33:36.868Z,30.54
2018-09-13T16:36:09.296Z,30.60
2018-09-13T16:38:49.011Z,30.75
2018-09-13T16:41:24.897Z,30.87
2018-09-13T16:44:02.728Z,30.75
2018-09-13T16:46:38.456Z,30.50
2018-09-13T16:49:08.436Z,30.46
2018-09-13T16:51:40.702Z,30.35
2018-09-13T16:54:11.850Z,30.29
2018-09-13T16:56:42.786Z,30.24
2018-09-13T16:59:12.078Z,30.19
2018-09-13T17:01:47.006Z,30.27
2018-09-13T17:04:17.507Z,30.46
2018-09-13T17:06:48.223Z,30.38
2018-09-13T17:09:19.168Z,30.30
2018-09-13T17:11:49.747Z,30.35
2018-09-13T17:14:19.287Z,30.30
2018-09-13T17:16:49.445Z,30.27
2018-09-13T17:19:21.045Z,29.85
2018-09-13T17:21:52.436Z,30.34
2018-09-13T17:24:22.511Z,30.26
2018-09-13T17:26:53.614Z,30.18
2018-09-13T17:29:23.919Z,30.06
2018-09-13T17:31:53.897Z,30.23
2018-09-13T17:34:26.297Z,30.24
2018-09-13T17:36:57.006Z,30.24
2018-09-13T17:39:28.242Z,30.19
2018-09-13T17:41:58.494Z,30.27
2018-09-13T17:44:29.266Z,30.14
2018-09-13T17:46:59.937Z,30.04
2018-09-13T17:49:30.357Z,30.06
2018-09-13T17:52:01.949Z,30.04
2018-09-13T17:54:33.220Z,29.95
2018-09-13T17:57:04.140Z,29.86
2018-09-13T17:59:35.834Z,29.87
2018-09-13T18:02:06.893Z,29.70
2018-09-13T18:04:37.167Z,29.67
2018-09-13T18:07:10.467Z,29.69
2018-09-13T18:09:41.301Z,29.62
2018-09-13T18:12:12.404Z,29.62
2018-09-13T18:14:44.058Z,29.64
2018-09-13T18:17:14.115Z,29.55
2018-09-13T18:19:45.966Z,29.52
2018-09-13T18:22:16.148Z,29.43
2018-09-13T18:24:47.185Z,29.62
2018-09-13T18:27:20.351Z,29.56
2018-09-13T18:29:52.680Z,29.02
2018-09-13T18:32:24.174Z,29.49
2018-09-13T18:34:56.496Z,29.44
2018-09-13T18:37:26.637Z,29.38
2018-09-13T18:40:02.251Z,29.36
2018-09-13T18:42:32.274Z,29.47
2018-09-13T18:45:03.105Z,29.61
2018-09-13T18:47:35.544Z,29.61
2018-09-13T18:50:08.242Z,29.67
2018-09-13T18:52:39.300Z,29.60
2018-09-13T18:55:12.560Z,29.43
2018-09-13T18:57:43.671Z,29.33
2018-09-13T19:00:16.426Z,29.21
2018-09-13T19:02:48.153Z,29.14
2018-09-13T19:05:20.437Z,29.03
2018-09-13T19:07:55.737Z,29.04
2018-09-13T19:10:26.755Z,29.18
2018-09-13T19:13:00.312Z,29.28
2018-09-13T19:15:32.800Z,29.34
2018-09-13T19:18:07.350Z,29.17
2018-09-13T19:20:42.719Z,28.68
2018-09-13T19:23:15.422Z,28.64
2018-09-13T19:25:52.887Z,28.42
2018-09-13T19:28:28.296Z,28.31
2018-09-13T19:31:01.178Z,28.22
2018-09-13T19:33:33.755Z,28.11
2018-09-13T19:36:07.039Z,28.09
2018-09-13T19:38:40.018Z,28.04
2018-09-13T19:41:11.164Z,28.04
2018-09-13T19:43:50.817Z,27.91
2018-09-13T19:46:23.592Z,27.95
2018-09-13T19:48:54.508Z,27.73
2018-09-13T19:51:26.448Z,27.63
2018-09-13T19:54:01.346Z,27.59
2018-09-13T19:56:34.428Z,27.48
2018-09-13T19:59:06.519Z,27.33
2018-09-13T20:01:39.030Z,27.25
2018-09-13T20:04:12.722Z,27.19
2018-09-13T20:06:46.720Z,27.18
2018-09-13T20:09:19.202Z,27.06
2018-09-13T20:11:50.794Z,26.95
2018-09-13T20:14:26.603Z,27.02
2018-09-13T20:16:57.541Z,27.01
2018-09-13T20:19:30.733Z,26.98
2018-09-13T20:22:03.548Z,27.18
2018-09-13T20:24:34.736Z,27.10
2018-09-13T20:27:07.289Z,26.52
2018-09-13T20:29:38.776Z,26.82
2018-09-13T20:32:11.772Z,26.70
2018-09-13T20:34:44.164Z,26.59
2018-09-13T20:37:17.555Z,26.28
2018-09-13T20:39:49.223Z,26.21
2018-09-13T20:42:21.090Z,25.95
2018-09-13T20:44:52.225Z,25.56
2018-09-13T20:47:23.512Z,25.06
2018-09-13T20:49:55.950Z,25.01
2018-09-13T20:52:30.681Z,24.69
2018-09-13T20:55:03.691Z,24.40
2018-09-13T20:57:34.763Z,24.23
2018-09-13T21:00:06.651Z,24.16
2018-09-13T21:02:41.987Z,23.94
2018-09-13T21:05:16.302Z,23.79
2018-09-13T21:07:49.347Z,23.78
2018-09-13T21:10:21.928Z,23.76
2018-09-13T21:12:55.242Z,23.72
2018-09-13T21:15:28.571Z,23.81
2018-09-13T21:18:02.558Z,23.75
2018-09-13T21:20:34.407Z,22.88
2018-09-13T21:23:06.433Z,23.49
2018-09-13T21:25:37.513Z,23.42
2018-09-13T21:28:10.436Z,23.22
2018-09-13T21:30:41.571Z,23.25
2018-09-13T21:33:14.019Z,23.21
2018-09-13T21:35:45.901Z,23.19
2018-09-13T21:38:18.365Z,23.09
2018-09-13T21:41:00.343Z,23.02
2018-09-13T21:43:34.989Z,22.98
2018-09-13T21:46:09.589Z,22.83
2018-09-13T21:48:44.876Z,22.82
2018-09-13T21:51:18.060Z,22.82
2018-09-13T21:53:51.215Z,22.64
2018-09-13T21:56:27.348Z,22.62
2018-09-13T21:59:01.766Z,22.69
2018-09-13T22:01:36.403Z,22.69
2018-09-13T22:04:17.657Z,22.77
2018-09-13T22:06:51.743Z,22.99
2018-09-13T22:09:28.837Z,22.90
2018-09-13T22:12:02.126Z,23.06
2018-09-13T22:14:35.310Z,23.14
2018-09-13T22:17:10.277Z,23.21
2018-09-13T22:19:42.848Z,23.35
2018-09-13T22:22:15.283Z,23.46
2018-09-13T22:24:51.306Z,22.90
2018-09-13T22:27:23.225Z,23.37
2018-09-13T22:29:55.687Z,23.56
2018-09-13T22:32:28.634Z,23.54
2018-09-13T22:35:02.573Z,23.53
2018-09-13T22:37:38.617Z,23.57
2018-09-13T22:40:14.451Z,23.59
2018-09-13T22:42:47.821Z,23.56
2018-09-13T22:45:26.781Z,23.63
2018-09-13T22:48:00.399Z,23.56
2018-09-13T22:50:34.986Z,23.61
2018-09-13T22:53:09.323Z,23.58
2018-09-13T22:55:43.585Z,23.69
2018-09-13T22:58:19.171Z,23.64
2018-09-13T23:01:00.064Z,23.71
2018-09-13T23:03:33.293Z,23.51
2018-09-13T23:06:06.993Z,23.58
2018-09-13T23:08:39.058Z,23.68
2018-09-13T23:11:12.019Z,23.84
2018-09-13T23:13:50.815Z,23.89
2018-09-13T23:16:22.779Z,23.96
2018-09-13T23:18:57.921Z,23.89
2018-09-13T23:21:31.366Z,23.30
2018-09-13T23:24:05.526Z,23.91
2018-09-13T23:26:38.900Z,24.01
2018-09-13T23:29:11.468Z,23.90
2018-09-13T23:31:45.292Z,23.86
2018-09-13T23:34:17.365Z,23.87
2018-09-13T23:36:51.419Z,23.78
2018-09-13T23:39:22.649Z,23.69
2018-09-13T23:41:54.419Z,23.67
2018-09-13T23:44:27.931Z,23.71
2018-09-13T23:47:01.466Z,23.56
2018-09-13T23:49:33.555Z,23.53
2018-09-13T23:52:04.451Z,23.44
2018-09-13T23:54:36.768Z,23.34
2018-09-13T23:57:09.660Z,23.32
2018-09-13T23:59:41.363Z,23.28
